createdAt,value
2022-08-26T00:00:36.921Z,100.00
2022-08-26T00:03:23.581Z,100.00
2022-08-26T00:06:09.024Z,100.00
2022-08-26T00:08:57.563Z,100.00
2022-08-26T00:11:42.757Z,100.00
2022-08-26T00:14:30.917Z,100.00
2022-08-26T00:17:16.358Z,100.00
2022-08-26T00:20:02.544Z,100.00
2022-08-26T00:22:48.344Z,100.00
2022-08-26T00:25:34.264Z,100.00
2022-08-26T00:28:20.149Z,100.00
2022-08-26T00:31:07.298Z,100.00
2022-08-26T00:33:52.225Z,100.00
2022-08-26T00:36:37.820Z,100.00
2022-08-26T00:39:24.622Z,100.00
2022-08-26T00:42:09.969Z,100.00
2022-08-26T00:44:56.373Z,100.00
2022-08-26T00:48:09.304Z,100.00
2022-08-26T00:51:02.271Z,100.00
2022-08-26T00:54:04.029Z,100.00
2022-08-26T00:56:57.799Z,100.00
2022-08-26T00:59:49.246Z,100.00
2022-08-26T01:02:34.180Z,100.00
2022-08-26T01:05:19.834Z,100.00
2022-08-26T01:08:05.221Z,100.00
2022-08-26T01:10:51.386Z,100.00
2022-08-26T01:13:41.181Z,100.00
2022-08-26T01:16:26.756Z,100.00
2022-08-26T01:19:29.685Z,100.00
2022-08-26T01:22:20.837Z,100.00
2022-08-26T01:25:06.771Z,100.00
2022-08-26T01:27:57.563Z,100.00
2022-08-26T01:30:44.762Z,100.00
2022-08-26T01:33:47.661Z,100.00
2022-08-26T01:36:33.034Z,100.00
2022-08-26T01:39:18.858Z,100.00
2022-08-26T01:42:10.340Z,100.00
2022-08-26T01:45:15.635Z,100.00
2022-08-26T01:48:04.810Z,100.00
2022-08-26T01:50:51.583Z,100.00
2022-08-26T01:53:38.278Z,100.00
2022-08-26T01:56:33.289Z,100.00
2022-08-26T01:59:24.481Z,100.00
2022-08-26T02:02:09.717Z,100.00
2022-08-26T02:05:01.565Z,100.00
2022-08-26T02:07:48.143Z,100.00
2022-08-26T02:10:33.523Z,100.00
2022-08-26T02:13:18.630Z,100.00
2022-08-26T02:16:05.542Z,100.00
2022-08-26T02:18:55.479Z,100.00
2022-08-26T02:21:41.368Z,100.00
2022-08-26T02:24:29.551Z,100.00
2022-08-26T02:27:17.264Z,100.00
2022-08-26T02:30:17.093Z,100.00
2022-08-26T02:33:03.763Z,100.00
2022-08-26T02:35:49.104Z,100.00
2022-08-26T02:38:35.752Z,100.00
2022-08-26T02:41:23.000Z,100.00
2022-08-26T02:44:08.679Z,100.00
2022-08-26T02:46:54.611Z,100.00
2022-08-26T02:49:42.059Z,100.00
2022-08-26T02:52:29.761Z,100.00
2022-08-26T02:55:15.565Z,100.00
2022-08-26T02:58:01.518Z,100.00
2022-08-26T03:00:52.915Z,100.00
2022-08-26T03:03:38.530Z,100.00
2022-08-26T03:06:25.049Z,100.00
2022-08-26T03:09:10.912Z,100.00
2022-08-26T03:12:04.170Z,100.00
2022-08-26T03:14:49.056Z,100.00
2022-08-26T03:17:34.363Z,100.00
2022-08-26T03:20:21.242Z,100.00
2022-08-26T03:23:06.561Z,100.00
2022-08-26T03:25:53.727Z,100.00
2022-08-26T03:29:02.702Z,100.00
2022-08-26T03:31:48.457Z,100.00
2022-08-26T03:34:35.586Z,100.00
2022-08-26T03:37:21.608Z,100.00
2022-08-26T03:40:10.338Z,100.00
2022-08-26T03:42:55.316Z,100.00
2022-08-26T03:45:41.056Z,100.00
2022-08-26T03:48:27.924Z,100.00
2022-08-26T03:51:18.293Z,100.00
2022-08-26T03:54:05.367Z,100.00
2022-08-26T03:56:53.923Z,100.00
2022-08-26T03:59:39.074Z,100.00
2022-08-26T04:02:27.079Z,100.00
2022-08-26T04:05:14.444Z,100.00
2022-08-26T04:07:59.917Z,100.00
2022-08-26T04:10:44.886Z,100.00
2022-08-26T04:13:30.285Z,100.00
2022-08-26T04:16:17.813Z,100.00
2022-08-26T04:19:03.539Z,100.00
2022-08-26T04:21:53.036Z,100.00
2022-08-26T04:24:39.491Z,100.00
2022-08-26T04:27:24.874Z,100.00
2022-08-26T04:30:11.073Z,100.00
2022-08-26T04:32:56.786Z,100.00
2022-08-26T04:35:44.111Z,100.00
2022-08-26T04:38:30.229Z,100.00
2022-08-26T04:41:17.021Z,100.00
2022-08-26T04:44:03.250Z,100.00
2022-08-26T04:46:48.247Z,100.00
2022-08-26T04:49:35.090Z,100.00
2022-08-26T04:52:20.679Z,100.00
2022-08-26T04:55:08.424Z,100.00
2022-08-26T04:57:54.052Z,100.00
2022-08-26T05:00:39.469Z,100.00
2022-08-26T05:03:27.178Z,100.00
2022-08-26T05:06:16.338Z,100.00
2022-08-26T05:09:04.835Z,100.00
2022-08-26T05:11:52.063Z,100.00
2022-08-26T05:14:37.782Z,100.00
2022-08-26T05:17:23.154Z,100.00
2022-08-26T05:20:08.958Z,100.00
2022-08-26T05:22:54.441Z,100.00
2022-08-26T05:25:41.923Z,100.00
2022-08-26T05:28:29.708Z,100.00
2022-08-26T05:31:21.350Z,100.00
2022-08-26T05:34:07.456Z,100.00
2022-08-26T05:36:53.728Z,100.00
2022-08-26T05:39:41.186Z,100.00
2022-08-26T05:42:26.141Z,100.00
2022-08-26T05:45:12.913Z,100.00
2022-08-26T05:47:58.333Z,100.00
2022-08-26T05:50:47.349Z,100.00
2022-08-26T05:53:33.265Z,100.00
2022-08-26T05:56:25.013Z,100.00
2022-08-26T05:59:14.702Z,100.00
2022-08-26T06:02:01.837Z,100.00
2022-08-26T06:04:47.544Z,100.00
2022-08-26T06:07:52.420Z,100.00
2022-08-26T06:10:44.866Z,100.00
2022-08-26T06:13:32.045Z,100.00
2022-08-26T06:16:19.633Z,100.00
2022-08-26T06:19:10.696Z,100.00
2022-08-26T06:21:56.733Z,100.00
2022-08-26T06:25:00.258Z,100.00
2022-08-26T06:27:45.865Z,100.00
2022-08-26T06:30:32.958Z,100.00
2022-08-26T06:33:19.181Z,100.00
2022-08-26T06:36:04.577Z,100.00
2022-08-26T06:38:51.393Z,100.00
2022-08-26T06:41:43.145Z,100.00
2022-08-26T06:44:28.423Z,100.00
2022-08-26T06:47:13.499Z,100.00
2022-08-26T06:49:58.773Z,100.00
2022-08-26T06:52:43.943Z,100.00
2022-08-26T06:55:29.672Z,100.00
2022-08-26T06:58:14.773Z,100.00
2022-08-26T07:01:03.690Z,100.00
2022-08-26T07:03:59.229Z,100.00
2022-08-26T07:06:52.389Z,100.00
2022-08-26T07:09:38.913Z,100.00
2022-08-26T07:12:26.016Z,100.00
2022-08-26T07:15:11.695Z,100.00
2022-08-26T07:17:57.230Z,100.00
2022-08-26T07:20:42.418Z,100.00
2022-08-26T07:23:27.964Z,100.00
2022-08-26T07:26:20.467Z,100.00
2022-08-26T07:29:06.819Z,100.00
2022-08-26T07:31:52.040Z,100.00
2022-08-26T07:34:38.389Z,100.00
2022-08-26T07:37:24.342Z,100.00
2022-08-26T07:40:09.903Z,100.00
2022-08-26T07:42:55.459Z,100.00
2022-08-26T07:45:40.773Z,100.00
2022-08-26T07:48:26.078Z,100.00
2022-08-26T07:51:11.319Z,100.00
2022-08-26T07:53:56.672Z,100.00
2022-08-26T07:56:41.973Z,100.00
2022-08-26T07:59:29.677Z,99.74
2022-08-26T08:02:15.865Z,98.64
2022-08-26T08:05:01.258Z,97.62
2022-08-26T08:07:47.284Z,95.92
2022-08-26T08:10:34.219Z,94.64
2022-08-26T08:13:20.437Z,93.28
2022-08-26T08:16:06.921Z,92.24
2022-08-26T08:18:57.922Z,90.44
2022-08-26T08:21:44.171Z,89.21
2022-08-26T08:24:29.302Z,88.97
2022-08-26T08:27:14.438Z,89.22
2022-08-26T08:30:00.406Z,88.51
2022-08-26T08:32:45.710Z,87.87
2022-08-26T08:35:30.909Z,87.31
2022-08-26T08:38:16.599Z,87.27
2022-08-26T08:41:02.125Z,85.19
2022-08-26T08:43:51.878Z,84.85
2022-08-26T08:46:37.863Z,84.55
2022-08-26T08:49:23.628Z,84.99
2022-08-26T08:52:29.233Z,84.00
2022-08-26T08:55:18.031Z,84.16
2022-08-26T08:58:10.639Z,83.12
2022-08-26T09:01:04.665Z,81.92
2022-08-26T09:04:38.520Z,80.79
2022-08-26T09:07:36.501Z,80.53
2022-08-26T09:10:43.506Z,80.39
2022-08-26T09:13:31.916Z,79.73
2022-08-26T09:16:24.041Z,79.19
2022-08-26T09:19:28.554Z,78.09
2022-08-26T09:22:29.254Z,76.37
2022-08-26T09:25:15.893Z,76.98
2022-08-26T09:28:01.105Z,75.82
2022-08-26T09:31:02.070Z,75.83
2022-08-26T09:34:17.798Z,75.18
2022-08-26T09:37:04.685Z,74.56
2022-08-26T09:39:50.077Z,74.05
2022-08-26T09:42:35.181Z,73.41
2022-08-26T09:45:28.261Z,72.59
2022-08-26T09:48:32.334Z,72.54
2022-08-26T09:51:24.742Z,71.93
2022-08-26T09:54:30.313Z,71.12
2022-08-26T09:57:26.517Z,70.11
2022-08-26T10:00:27.116Z,69.20
2022-08-26T10:03:24.198Z,68.05
2022-08-26T10:06:12.320Z,67.58
2022-08-26T10:09:02.723Z,66.61
2022-08-26T10:11:55.155Z,66.00
2022-08-26T10:14:48.435Z,64.92
2022-08-26T10:17:44.321Z,64.98
2022-08-26T10:20:36.504Z,64.50
2022-08-26T10:23:27.034Z,64.28
2022-08-26T10:26:17.536Z,63.47
2022-08-26T10:29:13.477Z,63.01
2022-08-26T10:32:03.599Z,62.10
2022-08-26T10:34:48.812Z,61.77
2022-08-26T10:37:46.654Z,61.95
2022-08-26T10:40:55.104Z,61.43
2022-08-26T10:43:50.101Z,60.69
2022-08-26T10:46:58.386Z,60.89
2022-08-26T10:49:45.885Z,60.08
2022-08-26T10:52:46.833Z,59.23
2022-08-26T10:55:40.770Z,58.82
2022-08-26T10:58:40.832Z,57.61
2022-08-26T11:01:43.249Z,57.97
2022-08-26T11:04:31.547Z,57.94
2022-08-26T11:07:37.815Z,57.74
2022-08-26T11:10:22.858Z,57.68
2022-08-26T11:13:09.132Z,56.68
2022-08-26T11:15:54.126Z,55.67
2022-08-26T11:18:42.023Z,55.52
2022-08-26T11:22:01.164Z,54.87
2022-08-26T11:24:53.596Z,54.10
2022-08-26T11:27:38.538Z,52.47
2022-08-26T11:30:24.184Z,53.41
2022-08-26T11:33:10.788Z,53.33
2022-08-26T11:35:57.234Z,53.17
2022-08-26T11:38:42.823Z,52.07
2022-08-26T11:41:29.960Z,51.61
2022-08-26T11:44:21.551Z,50.58
2022-08-26T11:47:11.615Z,49.69
2022-08-26T11:50:09.427Z,48.12
2022-08-26T11:53:06.290Z,46.30
2022-08-26T11:55:53.800Z,47.51
2022-08-26T11:58:44.229Z,48.08
2022-08-26T12:01:33.082Z,47.53
2022-08-26T12:04:28.563Z,46.77
2022-08-26T12:07:14.610Z,45.79
2022-08-26T12:10:02.737Z,46.60
2022-08-26T12:12:55.002Z,45.26
2022-08-26T12:15:39.884Z,44.33
2022-08-26T12:18:31.148Z,44.47
2022-08-26T12:21:24.425Z,43.78
2022-08-26T12:24:09.976Z,42.70
2022-08-26T12:27:16.378Z,42.95
2022-08-26T12:30:09.658Z,41.89
2022-08-26T12:33:21.904Z,41.34
2022-08-26T12:36:08.488Z,40.67
2022-08-26T12:38:58.122Z,40.91
2022-08-26T12:42:07.803Z,41.74
2022-08-26T12:45:06.448Z,41.93
2022-08-26T12:47:59.134Z,42.11
2022-08-26T12:50:47.758Z,41.38
2022-08-26T12:53:35.212Z,41.62
2022-08-26T12:56:22.122Z,42.30
2022-08-26T12:59:23.819Z,41.70
2022-08-26T13:02:08.931Z,39.58
2022-08-26T13:05:00.730Z,38.61
2022-08-26T13:08:08.879Z,39.87
2022-08-26T13:11:10.285Z,39.39
2022-08-26T13:14:01.999Z,38.14
2022-08-26T13:16:47.319Z,37.93
2022-08-26T13:19:32.350Z,37.48
2022-08-26T13:22:22.921Z,35.88
2022-08-26T13:25:08.386Z,35.89
2022-08-26T13:27:53.978Z,36.63
2022-08-26T13:30:40.578Z,36.00
2022-08-26T13:33:26.720Z,35.63
2022-08-26T13:36:13.156Z,36.36
2022-08-26T13:38:58.923Z,37.98
2022-08-26T13:41:44.422Z,39.34
2022-08-26T13:44:29.597Z,39.94
2022-08-26T13:47:14.923Z,40.13
2022-08-26T13:50:00.239Z,39.49
2022-08-26T13:52:45.507Z,39.08
2022-08-26T13:55:30.848Z,38.84
2022-08-26T13:58:16.492Z,39.82
2022-08-26T14:01:02.216Z,37.84
2022-08-26T14:03:47.331Z,36.79
2022-08-26T14:06:32.726Z,36.40
2022-08-26T14:09:17.959Z,36.49
2022-08-26T14:12:03.566Z,35.71
2022-08-26T14:14:48.735Z,36.46
2022-08-26T14:17:34.122Z,36.98
2022-08-26T14:20:29.071Z,36.38
2022-08-26T14:23:14.690Z,37.30
2022-08-26T14:26:00.374Z,37.40
2022-08-26T14:28:45.310Z,37.17
2022-08-26T14:31:32.990Z,36.05
2022-08-26T14:34:18.625Z,36.77
2022-08-26T14:37:07.232Z,37.29
2022-08-26T14:39:53.595Z,35.39
2022-08-26T14:42:38.955Z,36.18
2022-08-26T14:45:25.936Z,36.10
2022-08-26T14:48:11.309Z,35.14
2022-08-26T14:50:56.344Z,34.85
2022-08-26T14:54:00.398Z,35.48
2022-08-26T14:56:51.216Z,34.49
2022-08-26T14:59:49.702Z,34.76
2022-08-26T15:02:35.152Z,34.11
2022-08-26T15:05:20.745Z,33.07
2022-08-26T15:08:10.265Z,33.84
2022-08-26T15:10:55.472Z,33.47
2022-08-26T15:13:40.632Z,34.95
2022-08-26T15:16:27.101Z,34.60
2022-08-26T15:19:13.654Z,35.56
2022-08-26T15:21:58.731Z,34.02
2022-08-26T15:24:43.934Z,33.65
2022-08-26T15:27:29.228Z,34.64
2022-08-26T15:30:16.141Z,36.45
2022-08-26T15:33:01.518Z,36.72
2022-08-26T15:35:46.777Z,36.22
2022-08-26T15:38:36.998Z,37.20
2022-08-26T15:41:23.236Z,37.02
2022-08-26T15:44:10.119Z,36.98
2022-08-26T15:46:58.626Z,37.31
2022-08-26T15:49:43.945Z,37.31
2022-08-26T15:52:28.971Z,37.43
2022-08-26T15:55:13.921Z,37.52
2022-08-26T15:57:59.946Z,37.35
2022-08-26T16:00:44.973Z,37.28
2022-08-26T16:03:30.245Z,37.17
2022-08-26T16:06:16.725Z,37.19
2022-08-26T16:09:02.322Z,38.54
2022-08-26T16:11:47.401Z,39.34
2022-08-26T16:14:32.688Z,38.93
2022-08-26T16:17:18.389Z,41.08
2022-08-26T16:20:04.738Z,39.34
2022-08-26T16:22:49.925Z,38.70
2022-08-26T16:25:35.027Z,38.13
2022-08-26T16:28:26.180Z,39.15
2022-08-26T16:31:11.918Z,39.95
2022-08-26T16:33:57.085Z,40.14
2022-08-26T16:36:42.193Z,40.89
2022-08-26T16:39:27.421Z,39.96
2022-08-26T16:42:12.661Z,40.76
2022-08-26T16:44:57.680Z,41.10
2022-08-26T16:47:42.842Z,41.90
2022-08-26T16:50:28.198Z,41.04
2022-08-26T16:56:03.822Z,40.79
2022-08-26T16:58:49.141Z,41.26
2022-08-26T17:01:34.553Z,40.89
2022-08-26T17:04:19.797Z,41.00
2022-08-26T17:07:05.330Z,41.67
2022-08-26T17:09:50.423Z,42.25
2022-08-26T17:12:36.225Z,41.26
2022-08-26T17:15:25.128Z,40.93
2022-08-26T17:18:10.125Z,42.00
2022-08-26T17:20:55.955Z,44.86
2022-08-26T17:23:43.771Z,47.69
2022-08-26T17:26:29.435Z,49.27
2022-08-26T17:29:14.495Z,50.40
2022-08-26T17:32:00.111Z,51.53
2022-08-26T17:34:45.141Z,52.19
2022-08-26T17:37:30.042Z,52.77
2022-08-26T17:40:22.189Z,54.27
2022-08-26T17:43:12.078Z,54.54
2022-08-26T17:46:06.809Z,55.36
2022-08-26T17:48:52.764Z,56.19
2022-08-26T17:51:37.911Z,56.34
2022-08-26T17:54:23.101Z,56.94
2022-08-26T17:57:10.700Z,57.64
2022-08-26T17:59:56.502Z,57.67
2022-08-26T18:02:42.738Z,58.18
2022-08-26T18:05:28.075Z,58.40
2022-08-26T18:08:13.080Z,58.49
2022-08-26T18:10:58.993Z,58.69
2022-08-26T18:13:47.179Z,58.96
2022-08-26T18:16:38.092Z,59.00
2022-08-26T18:19:23.101Z,59.33
2022-08-26T18:22:08.524Z,59.84
2022-08-26T18:24:58.965Z,59.95
2022-08-26T18:27:44.606Z,60.43
2022-08-26T18:30:29.931Z,60.84
2022-08-26T18:33:15.322Z,61.10
2022-08-26T18:36:02.083Z,60.98
2022-08-26T18:38:50.494Z,61.17
2022-08-26T18:41:53.250Z,60.88
2022-08-26T18:44:38.549Z,61.23
2022-08-26T18:47:23.999Z,61.84
2022-08-26T18:50:10.803Z,61.92
2022-08-26T18:52:56.158Z,61.54
2022-08-26T18:55:41.377Z,61.76
2022-08-26T18:58:26.982Z,61.98
2022-08-26T19:01:13.165Z,62.15
2022-08-26T19:03:59.943Z,62.21
2022-08-26T19:06:48.008Z,62.40
2022-08-26T19:09:33.748Z,62.31
2022-08-26T19:12:18.763Z,62.68
2022-08-26T19:15:04.329Z,62.97
2022-08-26T19:17:49.453Z,62.96
2022-08-26T19:20:40.663Z,63.40
2022-08-26T19:23:31.910Z,63.72
2022-08-26T19:26:19.308Z,63.76
2022-08-26T19:29:05.250Z,64.44
2022-08-26T19:31:50.721Z,64.42
2022-08-26T19:34:36.353Z,64.60
2022-08-26T19:37:21.231Z,64.62
2022-08-26T19:40:07.706Z,64.99
2022-08-26T19:42:52.950Z,65.32
2022-08-26T19:45:38.127Z,65.59
2022-08-26T19:48:23.344Z,65.56
2022-08-26T19:51:11.396Z,65.85
2022-08-26T19:53:59.154Z,65.90
2022-08-26T19:56:49.173Z,66.14
2022-08-26T19:59:36.191Z,67.00
2022-08-26T20:02:21.483Z,67.09
2022-08-26T20:05:08.851Z,67.42
2022-08-26T20:07:54.201Z,67.57
2022-08-26T20:10:39.151Z,67.73
2022-08-26T20:13:25.872Z,67.89
2022-08-26T20:16:12.003Z,68.22
2022-08-26T20:19:16.104Z,68.21
2022-08-26T20:22:01.904Z,68.78
2022-08-26T20:24:47.373Z,68.69
2022-08-26T20:27:37.702Z,68.75
2022-08-26T20:30:23.758Z,68.86
2022-08-26T20:33:09.089Z,68.79
2022-08-26T20:35:54.060Z,68.66
2022-08-26T20:38:39.192Z,68.57
2022-08-26T20:41:25.660Z,69.06
2022-08-26T20:44:13.227Z,69.08
2022-08-26T20:46:59.199Z,68.81
2022-08-26T20:49:44.312Z,69.07
2022-08-26T20:52:29.722Z,69.16
2022-08-26T20:55:15.347Z,69.77
2022-08-26T20:58:00.344Z,70.17
2022-08-26T21:00:45.642Z,70.12
2022-08-26T21:03:30.777Z,70.26
2022-08-26T21:06:15.800Z,70.87
2022-08-26T21:09:01.608Z,71.22
2022-08-26T21:11:46.802Z,71.44
2022-08-26T21:14:32.047Z,71.44
2022-08-26T21:17:17.365Z,71.02
2022-08-26T21:20:02.632Z,71.71
2022-08-26T21:22:47.490Z,71.90
2022-08-26T21:25:32.460Z,72.20
2022-08-26T21:28:17.729Z,72.51
2022-08-26T21:31:08.660Z,73.24
2022-08-26T21:33:53.454Z,73.27
2022-08-26T21:36:38.800Z,72.89
2022-08-26T21:39:23.856Z,72.89
2022-08-26T21:42:09.189Z,73.53
2022-08-26T21:44:54.441Z,74.16
2022-08-26T21:47:40.532Z,73.84
2022-08-26T21:50:25.785Z,74.61
2022-08-26T21:53:13.438Z,74.15
2022-08-26T21:55:58.562Z,74.55
2022-08-26T21:58:44.247Z,74.91
2022-08-26T22:01:34.640Z,75.61
2022-08-26T22:04:20.508Z,76.13
2022-08-26T22:07:05.854Z,75.95
2022-08-26T22:09:50.841Z,75.87
2022-08-26T22:12:36.165Z,76.05
2022-08-26T22:15:23.173Z,76.80
2022-08-26T22:18:09.501Z,76.85
2022-08-26T22:21:02.609Z,77.16
2022-08-26T22:23:48.163Z,77.42
2022-08-26T22:26:34.465Z,78.77
2022-08-26T22:29:20.755Z,79.78
2022-08-26T22:32:06.258Z,81.18
2022-08-26T22:34:51.653Z,81.27
2022-08-26T22:37:36.890Z,81.60
2022-08-26T22:40:22.297Z,81.58
2022-08-26T22:43:07.626Z,81.65
2022-08-26T22:45:54.102Z,81.92
2022-08-26T22:48:39.239Z,82.37
2022-08-26T22:51:24.948Z,82.10
2022-08-26T22:54:10.445Z,82.43
2022-08-26T22:56:55.889Z,82.77
2022-08-26T22:59:41.158Z,82.54
2022-08-26T23:02:27.584Z,82.99
2022-08-26T23:05:13.077Z,83.66
2022-08-26T23:07:58.895Z,84.67
2022-08-26T23:10:46.163Z,85.54
2022-08-26T23:13:31.417Z,85.47
2022-08-26T23:16:16.686Z,85.80
2022-08-26T23:19:04.094Z,85.07
2022-08-26T23:21:50.158Z,85.31
2022-08-26T23:24:35.443Z,85.63
2022-08-26T23:27:20.546Z,85.85
2022-08-26T23:30:13.582Z,87.00
2022-08-26T23:32:58.762Z,87.60
2022-08-26T23:35:44.101Z,87.59
2022-08-26T23:38:29.064Z,88.40
2022-08-26T23:41:15.596Z,88.91
2022-08-26T23:44:05.203Z,88.29
2022-08-26T23:46:50.425Z,88.05
2022-08-26T23:49:36.305Z,89.24
2022-08-26T23:52:39.961Z,90.48
2022-08-26T23:55:25.518Z,91.17
2022-08-26T23:58:11.181Z,91.41
